Time;durP1;ratioP1;P1;durP2;ratioP2;P2;SDS_P1;SDS_P2;PMS_P1;PMS_P2;Temp;Humidity;BMP_temperature;BMP_pressure;BME280_temperature;BME280_humidity;BME280_pressure;Samples;Min_cycle;Max_cycle;Signal;HPM_P1;HPM_P2
2022/10/04 00:01:04;;;;;;;34.15;16.75;;;11.70;99.90;;;;;;5090862;28;20168;-70
2022/10/04 00:04:02;;;;;;;27.92;18.13;;;11.90;99.90;;;;;;5098354;28;20043;-71
2022/10/04 00:06:28;;;;;;;27.45;17.88;;;11.70;99.90;;;;;;5109095;28;20496;-71
2022/10/04 00:09:05;;;;;;;31.38;18.58;;;11.70;99.90;;;;;;5110552;28;20043;-71
2022/10/04 00:11:34;;;;;;;30.77;18.52;;;11.70;99.90;;;;;;5110559;28;20492;-70
2022/10/04 00:14:08;;;;;;;23.75;17.70;;;11.70;99.90;;;;;;5096544;28;20035;-70
2022/10/04 00:16:38;;;;;;;33.97;17.33;;;11.80;99.90;;;;;;5111361;28;20055;-70
2022/10/04 00:19:19;;;;;;;47.33;21.17;;;11.70;99.90;;;;;;5097012;28;20071;-70
2022/10/04 00:22:11;;;;;;;40.10;19.95;;;11.80;99.90;;;;;;5107449;28;20765;-70
2022/10/04 00:24:37;;;;;;;44.15;22.02;;;11.70;99.90;;;;;;5101092;28;20146;-70
2022/10/04 00:27:24;;;;;;;34.80;21.02;;;11.80;99.90;;;;;;5109839;28;20126;-70
2022/10/04 00:30:24;;;;;;;30.25;19.38;;;11.70;99.90;;;;;;5105680;28;20395;-70
2022/10/04 00:33:02;;;;;;;26.83;21.10;;;11.80;99.90;;;;;;5102794;28;20126;-70
2022/10/04 00:35:28;;;;;;;34.53;21.33;;;11.70;99.90;;;;;;5109282;28;20059;-70
2022/10/04 00:38:06;;;;;;;36.85;22.00;;;11.70;99.90;;;;;;5102015;28;20127;-70
2022/10/04 00:40:45;;;;;;;51.33;20.00;;;11.70;99.90;;;;;;5105269;28;20049;-70
2022/10/04 00:43:16;;;;;;;32.90;19.50;;;11.80;99.90;;;;;;5094431;28;20044;-70
2022/10/04 00:45:57;;;;;;;27.98;20.83;;;11.80;99.90;;;;;;5109855;28;20047;-70
2022/10/04 00:48:26;;;;;;;26.35;19.08;;;11.70;99.90;;;;;;5098431;28;20120;-70
2022/10/04 00:51:24;;;;;;;37.55;19.02;;;11.70;99.90;;;;;;5106764;28;20551;-70
2022/10/04 00:54:17;;;;;;;23.88;18.73;;;11.70;99.90;;;;;;5083638;28;20044;-70
2022/10/04 00:56:54;;;;;;;27.55;18.98;;;11.70;99.90;;;;;;5103753;28;20062;-70
2022/10/04 00:59:45;;;;;;;37.97;20.85;;;11.60;99.90;;;;;;5110440;28;20389;-71
2022/10/04 01:02:44;;;;;;;39.55;20.15;;;11.60;99.90;;;;;;5101809;28;20047;-70
2022/10/04 01:05:43;;;;;;;39.85;22.65;;;11.70;99.90;;;;;;5095228;28;20138;-71
2022/10/04 01:08:13;;;;;;;29.67;21.67;;;11.60;99.90;;;;;;5071719;28;20055;-70
2022/10/04 01:10:45;;;;;;;45.00;21.90;;;11.70;99.90;;;;;;5110349;28;20048;-70
2022/10/04 01:13:37;;;;;;;33.50;19.70;;;11.60;99.90;;;;;;5110023;28;20046;-70
2022/10/04 01:16:23;;;;;;;41.22;23.25;;;11.70;99.90;;;;;;5109205;28;20071;-70
2022/10/04 01:18:49;;;;;;;39.92;21.98;;;11.60;99.90;;;;;;5091898;28;20043;-71
2022/10/04 01:21:18;;;;;;;52.03;22.27;;;11.60;99.90;;;;;;5097439;28;20060;-70
2022/10/04 01:23:52;;;;;;;33.47;18.85;;;11.60;99.90;;;;;;5099155;28;20119;-71
2022/10/04 01:26:33;;;;;;;36.50;21.83;;;11.60;99.90;;;;;;5102642;28;20171;-71
2022/10/04 01:29:04;;;;;;;29.92;20.65;;;11.70;99.90;;;;;;5097434;28;20055;-71
2022/10/04 01:31:32;;;;;;;41.05;21.55;;;11.60;99.90;;;;;;5100883;28;20132;-70
2022/10/04 01:34:02;;;;;;;39.08;19.15;;;11.60;99.90;;;;;;5094257;28;20054;-70
2022/10/04 01:36:28;;;;;;;37.22;20.00;;;11.60;99.90;;;;;;5099850;28;20043;-70
2022/10/04 01:38:54;;;;;;;37.15;21.20;;;11.60;99.90;;;;;;5088326;28;20055;-70
2022/10/04 01:41:26;;;;;;;31.40;19.80;;;11.60;99.90;;;;;;5098854;28;20048;-70
2022/10/04 01:43:57;;;;;;;36.40;20.48;;;11.60;99.90;;;;;;5091211;28;20050;-70
2022/10/04 01:46:27;;;;;;;30.58;21.45;;;11.60;99.90;;;;;;5105965;28;20042;-70
2022/10/04 01:48:55;;;;;;;41.80;20.67;;;11.50;99.90;;;;;;5106572;28;20044;-70
2022/10/04 01:51:26;;;;;;;37.60;20.27;;;11.50;99.90;;;;;;5102811;28;20457;-70
2022/10/04 01:54:19;;;;;;;30.75;19.83;;;11.60;99.90;;;;;;5089495;28;20051;-70
2022/10/04 01:56:56;;;;;;;31.08;20.35;;;11.60;99.90;;;;;;5077793;28;20058;-70
2022/10/04 01:59:42;;;;;;;33.97;20.10;;;11.70;99.90;;;;;;5109099;28;20055;-70
2022/10/04 02:02:25;;;;;;;26.15;19.60;;;11.50;99.90;;;;;;5097779;28;20513;-70
2022/10/04 02:04:56;;;;;;;42.90;21.88;;;11.50;99.90;;;;;;5107567;28;20529;-70
2022/10/04 02:07:25;;;;;;;35.83;20.08;;;11.50;99.90;;;;;;5108558;28;20150;-70
2022/10/04 02:09:55;;;;;;;41.30;20.77;;;11.50;99.90;;;;;;5101844;28;20043;-70
2022/10/04 02:12:21;;;;;;;41.85;21.40;;;11.50;99.90;;;;;;5101711;28;20056;-70
2022/10/04 02:14:52;;;;;;;37.22;20.90;;;11.50;99.90;;;;;;5101396;28;20092;-70
2022/10/04 02:17:26;;;;;;;39.40;20.63;;;11.50;99.90;;;;;;5095740;28;20048;-70
2022/10/04 02:19:52;;;;;;;33.28;21.50;;;11.50;99.90;;;;;;5099300;28;20070;-70
2022/10/04 02:22:19;;;;;;;44.15;21.92;;;11.50;99.90;;;;;;5107453;28;20109;-71
2022/10/04 02:24:47;;;;;;;34.50;22.45;;;11.50;99.90;;;;;;5108540;28;20454;-71
2022/10/04 02:27:14;;;;;;;42.47;22.17;;;11.50;99.90;;;;;;5090635;28;20043;-70
2022/10/04 02:29:40;;;;;;;41.70;23.45;;;11.50;99.90;;;;;;5090023;28;20048;-71
2022/10/04 02:34:53;;;;;;;38.97;22.83;;;11.50;99.90;;;;;;5106454;28;20130;-70
2022/10/04 02:37:22;;;;;;;57.08;27.73;;;11.60;99.90;;;;;;5102976;27;20060;-70
2022/10/04 02:40:06;;;;;;;41.35;26.83;;;11.60;99.90;;;;;;5102125;28;20412;-70
2022/10/04 02:42:59;;;;;;;49.65;24.42;;;11.60;99.90;;;;;;5087997;28;20044;-71
2022/10/04 02:45:36;;;;;;;45.10;25.45;;;11.60;99.90;;;;;;5102008;28;20408;-70
2022/10/04 02:48:11;;;;;;;46.80;26.53;;;11.50;99.90;;;;;;5099201;28;20052;-70
2022/10/04 02:50:47;;;;;;;41.15;24.20;;;11.50;99.90;;;;;;5105835;28;20044;-70
2022/10/04 02:53:32;;;;;;;38.83;24.80;;;11.50;99.90;;;;;;5094109;28;20087;-70
2022/10/04 02:55:58;;;;;;;29.23;23.48;;;11.40;99.90;;;;;;5101002;28;20050;-70
2022/10/04 02:58:25;;;;;;;45.38;25.15;;;11.40;99.90;;;;;;5100043;28;20058;-71
2022/10/04 03:00:56;;;;;;;38.55;24.35;;;11.40;99.90;;;;;;5107306;28;20127;-70
2022/10/04 03:03:30;;;;;;;46.97;26.52;;;11.40;99.90;;;;;;5099520;28;20052;-70
2022/10/04 03:06:14;;;;;;;38.75;24.02;;;11.40;99.90;;;;;;5103818;28;20052;-70
2022/10/04 03:08:43;;;;;;;31.67;22.23;;;11.30;99.90;;;;;;5093829;28;20044;-70
2022/10/04 03:11:10;;;;;;;33.10;23.70;;;11.20;99.90;;;;;;5095561;28;20123;-70
2022/10/04 03:13:42;;;;;;;37.73;25.27;;;11.20;99.90;;;;;;5105049;28;20043;-70
2022/10/04 03:16:08;;;;;;;41.50;22.85;;;11.20;99.90;;;;;;5106332;28;20309;-70
2022/10/04 03:18:35;;;;;;;43.17;25.08;;;11.20;99.90;;;;;;5099927;28;20116;-70
2022/10/04 03:21:10;;;;;;;40.83;25.00;;;11.20;99.90;;;;;;5106379;28;20070;-70
2022/10/04 03:23:37;;;;;;;33.25;25.15;;;11.20;99.90;;;;;;5107630;28;20160;-70
2022/10/04 03:26:25;;;;;;;36.90;24.80;;;11.20;99.90;;;;;;5104850;28;20624;-70
2022/10/04 03:28:51;;;;;;;35.05;22.80;;;11.20;99.90;;;;;;5084473;28;20051;-70
2022/10/04 03:31:18;;;;;;;51.83;26.35;;;11.10;99.90;;;;;;5103232;28;20087;-70
2022/10/04 03:33:45;;;;;;;47.43;23.93;;;11.10;99.90;;;;;;5107613;28;20106;-70
2022/10/04 03:36:17;;;;;;;39.28;23.90;;;11.20;99.90;;;;;;5106439;28;20820;-70
2022/10/04 03:38:45;;;;;;;32.65;24.15;;;11.10;99.90;;;;;;5095710;28;20056;-70
2022/10/04 03:41:13;;;;;;;37.88;23.33;;;11.10;99.90;;;;;;5099500;28;20044;-70
2022/10/04 03:43:43;;;;;;;36.45;23.40;;;11.10;99.90;;;;;;5107871;28;20486;-70
2022/10/04 03:46:11;;;;;;;39.38;23.00;;;11.10;99.90;;;;;;5096989;28;20173;-70
2022/10/04 03:48:44;;;;;;;50.27;24.37;;;11.10;99.90;;;;;;5095796;28;20658;-70
2022/10/04 03:51:15;;;;;;;40.75;25.70;;;11.20;99.90;;;;;;5106220;28;20052;-71
2022/10/04 03:53:46;;;;;;;48.20;25.83;;;11.10;99.90;;;;;;5106015;28;20047;-70
2022/10/04 03:56:24;;;;;;;53.47;26.67;;;11.30;99.90;;;;;;5101769;28;20426;-70
2022/10/04 03:58:51;;;;;;;45.28;22.95;;;11.20;99.90;;;;;;5092693;28;20430;-70
2022/10/04 04:01:34;;;;;;;42.55;23.80;;;11.20;99.90;;;;;;5107187;28;20636;-70
2022/10/04 04:04:12;;;;;;;50.63;26.98;;;11.20;99.90;;;;;;5106172;28;20092;-70
2022/10/04 04:06:50;;;;;;;;;;;11.10;99.90;;;;;;5106493;28;20123;-70
2022/10/04 04:09:29;;;;;;;33.35;22.55;;;11.20;99.90;;;;;;5105842;28;19924;-70
2022/10/04 04:11:56;;;;;;;43.80;26.10;;;11.10;99.90;;;;;;5092560;28;20044;-71
2022/10/04 04:14:25;;;;;;;43.80;27.05;;;11.10;99.90;;;;;;5104403;28;20522;-70
2022/10/04 04:16:53;;;;;;;45.45;25.50;;;11.20;99.90;;;;;;5096529;28;20052;-70
2022/10/04 04:19:22;;;;;;;65.60;28.45;;;11.10;99.90;;;;;;5104279;28;20087;-70
2022/10/04 04:21:50;;;;;;;40.17;27.67;;;11.10;99.90;;;;;;5102192;28;20101;-70
2022/10/04 04:24:26;;;;;;;54.25;28.67;;;11.00;99.90;;;;;;5103432;28;20524;-70
2022/10/04 04:26:58;;;;;;;51.22;30.00;;;11.10;99.90;;;;;;5101722;28;20116;-70
2022/10/04 04:29:35;;;;;;;50.83;29.60;;;11.10;99.90;;;;;;5102046;28;20047;-70
2022/10/04 04:32:04;;;;;;;42.97;29.30;;;11.10;99.90;;;;;;5097487;28;20423;-70
2022/10/04 04:34:33;;;;;;;48.92;30.40;;;11.00;99.90;;;;;;5106417;28;20453;-70
2022/10/04 04:37:00;;;;;;;47.33;28.55;;;11.10;99.90;;;;;;5109066;28;20043;-70
2022/10/04 04:39:38;;;;;;;44.38;28.60;;;11.10;99.90;;;;;;5110931;28;20070;-70
2022/10/04 04:42:22;;;;;;;47.78;31.85;;;11.00;99.90;;;;;;5107134;28;20118;-70
2022/10/04 04:44:55;;;;;;;53.72;30.77;;;11.00;99.90;;;;;;5102723;28;20086;-71
2022/10/04 04:47:56;;;;;;;48.53;30.95;;;10.90;99.90;;;;;;5111334;28;20083;-70
2022/10/04 04:50:32;;;;;;;63.40;33.53;;;11.00;99.90;;;;;;5091793;28;20059;-70
2022/10/04 04:53:05;;;;;;;51.90;30.83;;;11.00;99.90;;;;;;5108008;28;20040;-70
2022/10/04 04:55:43;;;;;;;48.95;33.15;;;11.00;99.90;;;;;;5089088;28;20048;-70
2022/10/04 04:58:26;;;;;;;54.50;33.57;;;11.00;99.90;;;;;;5102500;28;20035;-70
2022/10/04 05:01:00;;;;;;;55.63;32.75;;;11.00;99.90;;;;;;5101996;28;20047;-70
2022/10/04 05:03:28;;;;;;;47.53;31.77;;;11.00;99.90;;;;;;5105180;28;20044;-70
2022/10/04 05:05:56;;;;;;;53.33;28.85;;;10.90;99.90;;;;;;5097344;28;20058;-70
2022/10/04 05:08:28;;;;;;;39.72;28.30;;;10.90;99.90;;;;;;5108863;28;20047;-70
2022/10/04 05:11:07;;;;;;;46.70;31.00;;;10.90;99.90;;;;;;5110180;28;20075;-70
2022/10/04 05:13:43;;;;;;;48.22;30.77;;;10.90;99.90;;;;;;5110036;28;20125;-70
2022/10/04 05:16:24;;;;;;;62.38;32.08;;;10.80;99.90;;;;;;5095740;28;20040;-70
2022/10/04 05:19:02;;;;;;;51.97;31.10;;;10.80;99.90;;;;;;5104585;28;20540;-70
2022/10/04 05:21:30;;;;;;;20.58;11.00;;;10.80;99.90;;;;;;5090841;28;20051;-70
2022/10/04 05:23:57;;;;;;;53.80;31.45;;;10.70;99.90;;;;;;5094861;28;20051;-70
2022/10/04 05:26:29;;;;;;;58.28;31.73;;;10.60;99.90;;;;;;5093547;28;20512;-70
2022/10/04 05:29:04;;;;;;;50.67;32.03;;;10.60;99.90;;;;;;5106888;28;20059;-69
2022/10/04 05:31:49;;;;;;;29.90;11.75;;;10.60;99.90;;;;;;5103245;27;20401;-70
2022/10/04 05:34:23;;;;;;;30.48;14.88;;;10.50;99.90;;;;;;5101128;28;20370;-70
2022/10/04 05:36:56;;;;;;;61.40;33.45;;;10.50;99.90;;;;;;5098282;28;20450;-69
2022/10/04 05:39:42;;;;;;;25.60;13.68;;;10.50;99.90;;;;;;5108516;27;20055;-69
2022/10/04 05:42:15;;;;;;;27.30;12.65;;;10.50;99.90;;;;;;5103945;28;20086;-69
2022/10/04 05:44:48;;;;;;;19.05;10.93;;;10.50;99.90;;;;;;5094519;28;20121;-69
2022/10/04 05:47:14;;;;;;;61.53;35.00;;;10.40;99.90;;;;;;5094945;28;20108;-69
2022/10/04 05:49:42;;;;;;;58.55;36.40;;;10.50;99.90;;;;;;5101932;28;20059;-69
2022/10/04 05:52:23;;;;;;;26.20;13.15;;;10.50;99.90;;;;;;5102488;28;20040;-68
2022/10/04 05:55:10;;;;;;;61.33;35.40;;;10.30;99.90;;;;;;5096109;28;20126;-68
2022/10/04 05:57:57;;;;;;;52.67;34.00;;;10.50;99.90;;;;;;5108322;28;20091;-68
2022/10/04 06:01:00;;;;;;;60.90;36.90;;;10.50;99.90;;;;;;5091282;28;20104;-68
2022/10/04 06:03:32;;;;;;;64.03;38.13;;;10.50;99.90;;;;;;5068835;28;20052;-67
2022/10/04 06:06:10;;;;;;;62.42;34.03;;;10.60;99.90;;;;;;5106492;28;20048;-67
2022/10/04 06:08:52;;;;;;;65.78;37.10;;;10.50;99.90;;;;;;5101361;28;20056;-67
2022/10/04 06:11:39;;;;;;;61.78;36.03;;;10.50;99.90;;;;;;5102998;28;20050;-68
2022/10/04 06:14:23;;;;;;;57.20;37.67;;;10.50;99.90;;;;;;5101108;28;20043;-67
2022/10/04 06:17:00;;;;;;;57.10;38.33;;;10.50;99.90;;;;;;5099638;28;20097;-68
2022/10/04 06:19:47;;;;;;;65.68;36.17;;;10.50;99.90;;;;;;5099684;28;20142;-68
2022/10/04 06:22:25;;;;;;;56.25;37.88;;;10.40;99.90;;;;;;5102657;28;20056;-68
2022/10/04 06:25:05;;;;;;;60.80;40.33;;;10.50;99.90;;;;;;5096569;27;20044;-68
2022/10/04 06:28:36;;;;;;;65.80;38.42;;;10.40;99.90;;;;;;5090180;28;20906;-68
2022/10/04 06:31:39;;;;;;;53.33;36.78;;;10.50;99.90;;;;;;5061011;28;20049;-69
2022/10/04 06:34:04;;;;;;;31.83;16.35;;;10.50;99.90;;;;;;5068800;28;20907;-69
2022/10/04 06:36:58;;;;;;;58.67;39.35;;;10.60;99.90;;;;;;5085104;28;20064;-69
2022/10/04 06:39:48;;;;;;;62.97;40.65;;;10.60;99.90;;;;;;5098984;28;20043;-69
2022/10/04 06:42:49;;;;;;;56.35;38.30;;;10.70;99.90;;;;;;5097205;28;20055;-69
2022/10/04 06:45:28;;;;;;;71.32;38.50;;;10.80;99.90;;;;;;5102721;28;20036;-69
2022/10/04 06:48:12;;;;;;;58.45;36.70;;;10.80;99.90;;;;;;5106723;28;20059;-69
2022/10/04 06:50:56;;;;;;;57.80;38.67;;;11.00;99.90;;;;;;5102489;28;20119;-69
2022/10/04 06:53:40;;;;;;;57.35;36.97;;;11.10;99.90;;;;;;5106246;28;20100;-69
2022/10/04 06:56:22;;;;;;;56.88;40.33;;;11.10;99.90;;;;;;5098166;28;20092;-69
2022/10/04 06:59:23;;;;;;;67.38;41.53;;;11.10;99.90;;;;;;5101272;28;20047;-69
2022/10/04 07:01:53;;;;;;;54.85;38.53;;;11.20;99.90;;;;;;5031775;28;20049;-69
2022/10/04 07:04:38;;;;;;;57.10;37.78;;;11.10;99.90;;;;;;5077402;28;20064;-69
2022/10/04 07:08:05;;;;;;;42.95;17.30;;;11.20;99.90;;;;;;5090907;28;20044;-69
2022/10/04 07:10:47;;;;;;;57.47;39.58;;;11.10;99.90;;;;;;5098963;28;20047;-69
2022/10/04 07:13:30;;;;;;;57.22;38.13;;;11.20;99.90;;;;;;5089188;28;20141;-69
2022/10/04 07:16:03;;;;;;;59.17;38.22;;;11.20;99.90;;;;;;5091577;28;20131;-68
2022/10/04 07:19:08;;;;;;;54.13;39.22;;;11.20;99.90;;;;;;5087010;28;20048;-68
2022/10/04 07:21:44;;;;;;;52.95;38.03;;;11.30;99.90;;;;;;5091944;28;20501;-69
2022/10/04 07:24:18;;;;;;;56.38;38.13;;;11.80;99.90;;;;;;5103682;28;20059;-68
2022/10/04 07:26:50;;;;;;;62.88;38.30;;;11.50;99.90;;;;;;5102672;28;20043;-69
2022/10/04 07:29:27;;;;;;;51.90;36.35;;;11.50;99.90;;;;;;5104029;28;20055;-69
2022/10/04 07:32:05;;;;;;;50.35;36.00;;;11.60;99.90;;;;;;5094748;28;20102;-69
2022/10/04 07:34:49;;;;;;;55.38;38.58;;;11.70;99.90;;;;;;5097222;28;20047;-68
2022/10/04 07:37:15;;;;;;;59.58;37.15;;;11.70;99.90;;;;;;5106201;28;20058;-68
2022/10/04 07:40:08;;;;;;;77.10;39.35;;;11.80;99.90;;;;;;5101905;28;20044;-68
2022/10/04 07:43:12;;;;;;;59.78;37.20;;;11.90;99.90;;;;;;5097629;28;20051;-68
2022/10/04 07:45:40;;;;;;;49.45;33.47;;;12.00;99.90;;;;;;5105622;28;20496;-69
2022/10/04 07:48:18;;;;;;;51.33;36.17;;;12.10;99.90;;;;;;5102387;28;20051;-68
2022/10/04 07:51:18;;;;;;;57.15;34.90;;;12.20;99.90;;;;;;5102839;28;20051;-68
2022/10/04 07:54:02;;;;;;;54.42;34.65;;;12.30;99.90;;;;;;5105035;28;20054;-68
2022/10/04 07:56:52;;;;;;;50.33;34.72;;;12.30;99.90;;;;;;5103412;28;20052;-68
2022/10/04 07:59:36;;;;;;;45.55;33.70;;;12.40;99.90;;;;;;5101952;28;20555;-68
2022/10/04 08:02:22;;;;;;;51.25;34.88;;;12.40;99.90;;;;;;5093717;28;20496;-68
2022/10/04 08:05:06;;;;;;;64.95;35.42;;;12.50;99.90;;;;;;5055844;28;20109;-68
2022/10/04 08:07:35;;;;;;;56.13;33.25;;;12.60;99.90;;;;;;5091296;28;20596;-68
2022/10/04 08:10:21;;;;;;;46.20;32.47;;;12.70;99.90;;;;;;5101111;28;20035;-68
2022/10/04 08:12:56;;;;;;;49.33;34.42;;;12.90;99.90;;;;;;5108373;28;20051;-67
2022/10/04 08:15:25;;;;;;;55.67;36.10;;;13.00;99.90;;;;;;5103145;28;20674;-67
2022/10/04 08:18:02;;;;;;;50.33;31.63;;;13.10;99.90;;;;;;5106377;28;20050;-68
2022/10/04 08:20:38;;;;;;;53.55;33.28;;;13.20;99.90;;;;;;5101611;28;20716;-68
2022/10/04 08:23:34;;;;;;;46.05;32.25;;;13.20;99.90;;;;;;5097945;28;20494;-67
2022/10/04 08:26:18;;;;;;;47.67;28.13;;;13.40;99.90;;;;;;5107734;28;20124;-67
2022/10/04 08:29:41;;;;;;;44.97;29.85;;;13.50;99.90;;;;;;5103604;28;20123;-68
2022/10/04 08:32:28;;;;;;;77.00;30.83;;;13.70;99.90;;;;;;5102611;28;20081;-68
2022/10/04 08:35:02;;;;;;;45.35;29.65;;;13.80;99.90;;;;;;5108718;28;20039;-67
2022/10/04 08:37:56;;;;;;;47.75;27.77;;;13.70;99.90;;;;;;5096387;28;20520;-68
2022/10/04 08:40:45;;;;;;;40.92;26.95;;;13.80;99.90;;;;;;5109415;28;20043;-67
2022/10/04 08:43:20;;;;;;;44.28;25.98;;;13.80;99.90;;;;;;5108048;28;20047;-68
2022/10/04 08:46:18;;;;;;;43.42;27.60;;;13.80;99.90;;;;;;5110891;28;20052;-68
2022/10/04 08:48:59;;;;;;;50.65;26.80;;;13.80;99.90;;;;;;5109725;28;20051;-67
2022/10/04 08:51:46;;;;;;;34.13;23.58;;;13.90;99.90;;;;;;5106734;28;20088;-68
2022/10/04 08:54:34;;;;;;;33.75;23.80;;;14.00;99.90;;;;;;5106094;28;20043;-68
2022/10/04 08:57:18;;;;;;;33.40;22.55;;;14.10;99.90;;;;;;5106491;28;20078;-68
2022/10/04 09:00:17;;;;;;;30.50;21.63;;;14.30;99.90;;;;;;5100554;28;20051;-67
2022/10/04 09:03:17;;;;;;;33.88;22.13;;;14.50;99.90;;;;;;5065672;28;20101;-68
2022/10/04 09:06:00;;;;;;;34.45;20.92;;;14.70;99.90;;;;;;5108078;28;20050;-68
2022/10/04 09:08:50;;;;;;;33.15;22.67;;;14.90;99.90;;;;;;5110206;28;20133;-74
2022/10/04 09:11:33;;;;;;;38.42;23.75;;;15.10;99.90;;;;;;5108243;28;20055;-74
2022/10/04 09:14:37;;;;;;;35.35;20.33;;;15.30;99.90;;;;;;5101888;28;20053;-74
2022/10/04 09:17:17;;;;;;;35.88;19.60;;;15.50;99.90;;;;;;5102547;28;20050;-75
2022/10/04 09:19:51;;;;;;;31.90;19.25;;;15.80;99.90;;;;;;5098674;28;20059;-74
2022/10/04 09:22:27;;;;;;;36.85;19.67;;;16.00;99.90;;;;;;5091834;28;20062;-74
2022/10/04 09:25:25;;;;;;;34.28;18.95;;;16.30;99.90;;;;;;5108548;28;20043;-74
2022/10/04 09:28:19;;;;;;;26.80;18.10;;;16.50;99.90;;;;;;5107550;28;20043;-74
2022/10/04 09:31:17;;;;;;;35.63;18.65;;;16.50;99.90;;;;;;5099398;28;20048;-75
2022/10/04 09:33:58;;;;;;;28.33;16.75;;;16.80;99.90;;;;;;5102658;28;20430;-75
2022/10/04 09:36:39;;;;;;;25.10;17.55;;;16.90;99.90;;;;;;5101071;28;20047;-74
2022/10/04 09:39:38;;;;;;;23.55;17.38;;;17.10;99.90;;;;;;5094081;28;20047;-75
2022/10/04 09:42:15;;;;;;;27.73;17.88;;;17.20;99.90;;;;;;5035761;28;20145;-75
2022/10/04 09:45:04;;;;;;;22.88;16.60;;;17.10;99.90;;;;;;5098159;28;20054;-75
2022/10/04 09:47:45;;;;;;;21.10;15.95;;;17.40;99.90;;;;;;5098371;28;20104;-75
2022/10/04 09:50:36;;;;;;;23.00;15.32;;;17.50;99.90;;;;;;5095498;28;20077;-75
2022/10/04 09:53:13;;;;;;;28.95;16.30;;;17.50;99.90;;;;;;5109967;27;20345;-75
2022/10/04 09:56:14;;;;;;;22.42;15.05;;;17.70;99.90;;;;;;5098144;28;20139;-75
2022/10/04 09:59:21;;;;;;;29.92;16.08;;;17.80;99.90;;;;;;5098772;28;20067;-75
2022/10/04 10:01:59;;;;;;;25.90;14.98;;;17.90;99.90;;;;;;5107156;28;20136;-75
2022/10/04 10:04:46;;;;;;;21.40;15.52;;;18.10;99.90;;;;;;5096914;28;20036;-75
2022/10/04 10:07:33;;;;;;;26.38;18.00;;;18.10;99.90;;;;;;5090829;28;20074;-75
2022/10/04 10:13:38;;;;;;;24.95;17.30;;;18.30;99.90;;;;;;5093183;28;20051;-75
2022/10/04 10:16:31;;;;;;;23.60;16.60;;;18.30;99.90;;;;;;5090913;28;20047;-76
2022/10/04 10:19:15;;;;;;;19.35;15.02;;;18.40;99.90;;;;;;5094256;28;20055;-76
2022/10/04 10:21:54;;;;;;;25.42;15.82;;;18.60;99.90;;;;;;5093769;28;20797;-76
2022/10/04 10:24:25;;;;;;;25.90;15.35;;;18.50;99.90;;;;;;5104791;28;20058;-76
2022/10/04 10:26:51;;;;;;;33.20;15.32;;;18.80;99.90;;;;;;5104599;28;20111;-77
2022/10/04 10:29:45;;;;;;;19.67;12.95;;;18.90;99.90;;;;;;5108209;28;20130;-76
2022/10/04 10:32:43;;;;;;;17.17;12.40;;;18.90;99.90;;;;;;5098503;28;20067;-76
2022/10/04 10:35:50;;;;;;;23.20;13.23;;;18.90;99.90;;;;;;5099934;28;20043;-76
2022/10/04 10:38:34;;;;;;;22.10;13.50;;;19.10;99.90;;;;;;5095136;28;20039;-77
2022/10/04 10:41:23;;;;;;;24.27;14.05;;;19.20;99.90;;;;;;5100952;28;20039;-76
2022/10/04 10:44:08;;;;;;;25.35;14.80;;;19.50;99.90;;;;;;5102248;28;20065;-77
2022/10/04 10:47:09;;;;;;;20.95;12.80;;;19.30;99.90;;;;;;5102636;28;20451;-78
2022/10/04 10:50:05;;;;;;;17.17;11.20;;;19.50;99.90;;;;;;5101225;28;20051;-77
2022/10/04 10:53:06;;;;;;;17.00;10.95;;;19.50;99.90;;;;;;5099266;28;20524;-78
2022/10/04 10:56:00;;;;;;;23.75;12.88;;;19.60;99.90;;;;;;5105720;28;20047;-78
2022/10/04 10:58:49;;;;;;;18.95;12.73;;;19.70;99.90;;;;;;5107904;28;20044;-77
2022/10/04 11:01:45;;;;;;;21.30;12.10;;;19.90;99.90;;;;;;5097531;28;20051;-77
2022/10/04 11:04:53;;;;;;;21.17;12.88;;;19.90;99.90;;;;;;5094314;28;20052;-78
2022/10/04 11:07:50;;;;;;;17.58;11.88;;;19.80;99.90;;;;;;5102515;28;20074;-78
2022/10/04 11:10:45;;;;;;;21.85;11.68;;;19.80;99.90;;;;;;5089430;28;20047;-77
2022/10/04 11:13:38;;;;;;;19.67;13.27;;;19.90;99.90;;;;;;5096067;28;20047;-77
2022/10/04 11:16:34;;;;;;;19.63;12.95;;;19.80;99.90;;;;;;5086118;28;20082;-77
2022/10/04 11:19:43;;;;;;;21.40;11.63;;;20.00;99.90;;;;;;5091623;28;20055;-78
2022/10/04 11:22:11;;;;;;;32.25;14.70;;;20.00;99.90;;;;;;5081847;28;20047;-78
2022/10/04 11:25:11;;;;;;;19.70;13.25;;;20.10;99.90;;;;;;5094654;28;20135;-77
2022/10/04 11:28:11;;;;;;;29.40;14.48;;;20.10;99.90;;;;;;5094536;28;20055;-77
2022/10/04 11:30:55;;;;;;;27.73;15.25;;;20.10;99.90;;;;;;5104276;28;20047;-76
2022/10/04 11:33:53;;;;;;;22.65;12.25;;;20.00;99.90;;;;;;5088567;28;20055;-77
2022/10/04 11:36:43;;;;;;;20.48;13.13;;;20.20;99.90;;;;;;5075558;28;20067;-77
2022/10/04 11:39:37;;;;;;;25.58;13.32;;;20.10;99.90;;;;;;5099281;28;20136;-77
2022/10/04 11:42:21;;;;;;;29.67;14.20;;;20.00;99.90;;;;;;5099892;28;20044;-77
2022/10/04 11:45:16;;;;;;;17.35;10.88;;;20.10;99.90;;;;;;5095802;28;20373;-71
2022/10/04 11:48:10;;;;;;;13.75;10.52;;;20.00;99.90;;;;;;5108153;28;20036;-71
2022/10/04 11:50:53;;;;;;;24.23;11.48;;;20.00;99.90;;;;;;5108113;28;20096;-71
2022/10/04 11:53:43;;;;;;;23.63;11.38;;;19.90;99.90;;;;;;5111748;28;20055;-71
2022/10/04 11:56:28;;;;;;;23.15;11.25;;;20.10;99.90;;;;;;5110274;28;20076;-71
2022/10/04 11:59:06;;;;;;;21.17;11.02;;;20.00;99.90;;;;;;5111506;28;20047;-71
2022/10/04 12:02:20;;;;;;;19.65;9.23;;;20.10;99.90;;;;;;5098407;28;20048;-71
2022/10/04 12:05:31;;;;;;;25.75;11.18;;;20.10;99.90;;;;;;5095774;28;20051;-71
2022/10/04 12:08:15;;;;;;;21.90;10.05;;;20.10;99.90;;;;;;5089937;28;20142;-71
2022/10/04 12:10:43;;;;;;;16.27;8.35;;;20.00;99.90;;;;;;5092280;28;20040;-71
2022/10/04 12:13:34;;;;;;;18.08;10.10;;;20.30;99.90;;;;;;5107128;28;20412;-71
2022/10/04 12:16:14;;;;;;;17.52;7.95;;;20.00;99.90;;;;;;5106341;28;20063;-71
2022/10/04 12:19:06;;;;;;;15.20;7.60;;;20.00;99.90;;;;;;5072572;28;20135;-71
2022/10/04 12:22:00;;;;;;;10.13;7.07;;;20.00;99.90;;;;;;5100616;28;20051;-71
2022/10/04 12:24:26;;;;;;;14.35;8.93;;;20.00;99.90;;;;;;5093232;28;20047;-71
2022/10/04 12:27:10;;;;;;;18.48;9.45;;;19.90;99.90;;;;;;5111208;28;20539;-71
2022/10/04 12:30:21;;;;;;;16.55;8.45;;;20.10;99.90;;;;;;5103076;28;20040;-71
2022/10/04 12:33:01;;;;;;;13.98;8.88;;;20.10;99.90;;;;;;5098679;28;20094;-71
2022/10/04 12:35:38;;;;;;;20.45;9.35;;;20.10;99.90;;;;;;5103317;28;20526;-71
2022/10/04 12:38:25;;;;;;;16.50;8.35;;;20.10;99.90;;;;;;5094422;28;20044;-71
2022/10/04 12:40:56;;;;;;;15.45;9.05;;;20.00;99.90;;;;;;5109657;28;20445;-71
2022/10/04 12:43:25;;;;;;;11.73;8.20;;;20.00;99.90;;;;;;5092789;28;20048;-71
2022/10/04 12:46:14;;;;;;;15.48;9.70;;;20.20;99.90;;;;;;5104544;28;20408;-71
2022/10/04 12:48:55;;;;;;;24.13;10.07;;;20.20;99.90;;;;;;5099613;28;20087;-71
2022/10/04 12:52:01;;;;;;;30.33;10.23;;;20.20;99.90;;;;;;5092105;28;20050;-71
2022/10/04 12:54:35;;;;;;;14.25;9.10;;;20.10;99.90;;;;;;5102446;28;20092;-71
2022/10/04 12:57:25;;;;;;;17.30;10.00;;;20.10;99.90;;;;;;5105783;28;20051;-71
2022/10/04 13:00:19;;;;;;;23.60;10.35;;;20.20;99.90;;;;;;5110540;28;20050;-71
2022/10/04 13:03:21;;;;;;;24.73;11.73;;;20.20;99.90;;;;;;5090904;28;20065;-71
2022/10/04 13:05:47;;;;;;;14.30;10.75;;;20.20;99.90;;;;;;5102048;28;20081;-71
2022/10/04 13:08:46;;;;;;;15.50;9.55;;;20.20;99.90;;;;;;5109083;28;20051;-71
2022/10/04 13:11:27;;;;;;;18.65;10.57;;;20.20;99.90;;;;;;5084146;28;20043;-71
2022/10/04 13:14:22;;;;;;;25.98;9.98;;;20.20;99.90;;;;;;5094402;28;20051;-71
2022/10/04 13:17:02;;;;;;;14.75;8.38;;;20.30;99.90;;;;;;5098279;28;20060;-72
2022/10/04 13:19:49;;;;;;;13.25;9.25;;;20.30;99.90;;;;;;5108980;28;20059;-71
2022/10/04 13:22:34;;;;;;;13.82;9.68;;;20.30;99.90;;;;;;5094080;28;20130;-71
2022/10/04 13:25:10;;;;;;;16.13;11.00;;;20.10;99.90;;;;;;5093804;28;20057;-71
2022/10/04 13:28:04;;;;;;;17.08;11.70;;;20.00;99.90;;;;;;5092096;28;20794;-71
2022/10/04 13:30:46;;;;;;;17.63;11.30;;;20.00;99.90;;;;;;5101015;28;20059;-71
2022/10/04 13:33:25;;;;;;;17.77;11.70;;;19.90;99.90;;;;;;5105268;28;20405;-71
2022/10/04 13:36:22;;;;;;;19.35;11.13;;;19.80;99.90;;;;;;5093600;28;20211;-71
2022/10/04 13:38:59;;;;;;;23.93;11.50;;;19.70;99.90;;;;;;5109610;28;20091;-73
2022/10/04 13:41:28;;;;;;;28.38;11.45;;;19.80;99.90;;;;;;5108547;28;20072;-70
2022/10/04 13:44:16;;;;;;;20.00;11.75;;;19.90;99.90;;;;;;5104540;28;20046;-71
2022/10/04 13:46:57;;;;;;;15.90;11.38;;;19.90;99.90;;;;;;5103775;28;20043;-70